Time;durP1;ratioP1;P1;durP2;ratioP2;P2;SDS_P1;SDS_P2;PMS_P1;PMS_P2;Temp;Humidity;BMP_temperature;BMP_pressure;BME280_temperature;BME280_humidity;BME280_pressure;Samples;Min_cycle;Max_cycle;Signal;HPM_P1;HPM_P2
2021/07/25 00:00:06;;;;;;;;;;;20.90;66.20;;;;;;484702;245;1060;-46
2021/07/25 00:02:08;;;;;;;;;;;20.90;66.20;;;;;;484671;245;1640;-47
2021/07/25 00:04:09;;;;;;;;;;;20.90;66.30;;;;;;484798;245;1004;-47
2021/07/25 00:06:10;;;;;;;;;;;20.90;66.30;;;;;;485024;245;1138;-47
2021/07/25 00:08:12;;;;;;;;;;;20.90;66.30;;;;;;484763;245;1177;-47
2021/07/25 00:10:13;;;;;;;;;;;20.90;66.40;;;;;;485222;245;1242;-46
2021/07/25 00:12:14;;;;;;;;;;;20.90;66.40;;;;;;484887;245;1321;-46
2021/07/25 00:14:16;;;;;;;;;;;20.90;66.30;;;;;;484767;245;1075;-47
2021/07/25 00:16:17;;;;;;;;;;;20.90;66.20;;;;;;484702;245;2229;-46
2021/07/25 00:18:18;;;;;;;;;;;20.90;66.30;;;;;;484791;245;1025;-47
2021/07/25 00:20:20;;;;;;;;;;;20.80;66.30;;;;;;484721;245;1100;-47
2021/07/25 00:22:21;;;;;;;;;;;20.90;66.30;;;;;;485004;245;1171;-47
2021/07/25 00:24:28;;;;;;;;;;;20.80;66.30;;;;;;484751;245;1199;-47
2021/07/25 00:26:33;;;;;;;;;;;20.80;66.30;;;;;;484664;246;2030;-47
2021/07/25 00:28:33;;;;;;;;;;;20.90;66.30;;;;;;484784;246;1815;-47
2021/07/25 00:30:34;;;;;;;;;;;20.90;66.20;;;;;;485201;245;1043;-47
2021/07/25 00:32:35;;;;;;;;;;;20.90;66.10;;;;;;484825;245;1187;-47
2021/07/25 00:34:37;;;;;;;;;;;20.90;66.10;;;;;;485217;245;1056;-46
2021/07/25 00:36:38;;;;;;;;;;;20.90;66.20;;;;;;484662;245;2183;-46
2021/07/25 00:38:39;;;;;;;;;;;20.90;66.20;;;;;;484752;245;1209;-47
2021/07/25 00:40:41;;;;;;;;;;;20.90;66.20;;;;;;485124;245;1256;-46
2021/07/25 00:42:42;;;;;;;;;;;20.90;66.20;;;;;;484651;245;1242;-46
2021/07/25 00:44:43;;;;;;;;;;;20.90;66.20;;;;;;485255;245;1067;-47
2021/07/25 00:46:46;;;;;;;;;;;20.80;66.30;;;;;;484607;245;1231;-47
2021/07/25 00:48:47;;;;;;;;;;;20.90;66.30;;;;;;485174;245;1130;-46
2021/07/25 00:50:48;;;;;;;;;;;20.90;66.30;;;;;;485101;245;1265;-47
2021/07/25 00:52:50;;;;;;;;;;;20.90;66.40;;;;;;484704;245;1215;-46
2021/07/25 00:54:51;;;;;;;;;;;20.90;66.30;;;;;;485210;245;997;-46
2021/07/25 00:56:52;;;;;;;;;;;20.90;66.30;;;;;;484858;245;2143;-47
2021/07/25 00:58:54;;;;;;;;;;;20.90;66.30;;;;;;485195;245;1070;-47
2021/07/25 01:00:55;;;;;;;;;;;20.90;66.30;;;;;;484739;245;1161;-47
2021/07/25 01:02:56;;;;;;;;;;;20.90;66.30;;;;;;485048;245;1241;-46
2021/07/25 01:04:58;;;;;;;;;;;20.80;66.40;;;;;;485209;245;1031;-46
2021/07/25 01:06:59;;;;;;;;;;;20.90;66.50;;;;;;484914;245;1236;-46
2021/07/25 01:09:01;;;;;;;;;;;20.90;66.40;;;;;;484923;245;1198;-47
2021/07/25 01:11:02;;;;;;;;;;;20.90;66.40;;;;;;485210;242;1120;-46
2021/07/25 01:13:03;;;;;;;;;;;20.80;66.30;;;;;;485135;245;1214;-47
2021/07/25 01:15:04;;;;;;;;;;;20.80;66.30;;;;;;484780;245;1070;-47
2021/07/25 01:17:06;;;;;;;;;;;20.90;66.40;;;;;;484904;245;2183;-47
2021/07/25 01:19:07;;;;;;;;;;;20.80;66.30;;;;;;484796;245;1036;-46
2021/07/25 01:21:08;;;;;;;;;;;20.90;66.40;;;;;;485148;245;1172;-46
2021/07/25 01:23:10;;;;;;;;;;;20.80;66.40;;;;;;484696;245;1050;-46
2021/07/25 01:25:11;;;;;;;;;;;20.80;66.40;;;;;;484799;245;1057;-47
2021/07/25 01:27:12;;;;;;;;;;;20.90;66.40;;;;;;485143;245;1098;-47
2021/07/25 01:29:14;;;;;;;;;;;20.90;66.30;;;;;;485187;245;1086;-47
2021/07/25 01:31:15;;;;;;;;;;;20.90;66.40;;;;;;484730;245;1237;-47
2021/07/25 01:33:20;;;;;;;;;;;20.80;66.40;;;;;;485162;245;1102;-47
2021/07/25 01:35:18;;;;;;;;;;;20.90;66.40;;;;;;484967;246;1995;-47
2021/07/25 01:37:19;;;;;;;;;;;20.80;66.30;;;;;;485206;245;2184;-47
2021/07/25 01:39:20;;;;;;;;;;;20.80;66.40;;;;;;485004;245;1316;-47
2021/07/25 01:41:22;;;;;;;;;;;20.90;66.50;;;;;;484691;245;1090;-47
2021/07/25 01:43:23;;;;;;;;;;;20.90;66.40;;;;;;485120;245;1563;-47
2021/07/25 01:45:24;;;;;;;;;;;20.90;66.40;;;;;;484735;245;1083;-46
2021/07/25 01:47:26;;;;;;;;;;;20.80;66.40;;;;;;485135;245;1237;-47
2021/07/25 01:49:27;;;;;;;;;;;20.90;66.50;;;;;;485210;245;1085;-46
2021/07/25 01:51:28;;;;;;;;;;;20.80;66.50;;;;;;484973;245;1080;-47
2021/07/25 01:53:30;;;;;;;;;;;20.80;66.40;;;;;;484812;245;1077;-46
2021/07/25 01:55:31;;;;;;;;;;;20.80;66.40;;;;;;484764;245;1208;-46
2021/07/25 01:57:32;;;;;;;;;;;20.90;66.50;;;;;;485121;245;2248;-46
2021/07/25 01:59:34;;;;;;;;;;;20.90;66.40;;;;;;484721;245;1090;-46
2021/07/25 02:01:35;;;;;;;;;;;20.80;66.40;;;;;;485162;245;1083;-47
2021/07/25 02:03:37;;;;;;;;;;;20.90;66.40;;;;;;485076;245;1178;-47
2021/07/25 02:05:37;;;;;;;;;;;20.90;66.40;;;;;;484791;245;1057;-47
2021/07/25 02:07:39;;;;;;;;;;;20.90;66.30;;;;;;484692;245;1349;-46
2021/07/25 02:09:40;;;;;;;;;;;20.90;66.30;;;;;;484736;245;1268;-47
2021/07/25 02:11:41;;;;;;;;;;;20.90;66.30;;;;;;485059;245;1487;-47
2021/07/25 02:13:43;;;;;;;;;;;20.90;66.30;;;;;;485156;245;1113;-47
2021/07/25 02:15:44;;;;;;;;;;;20.90;66.30;;;;;;485181;245;1198;-47
2021/07/25 02:17:45;;;;;;;;;;;20.90;66.30;;;;;;484952;245;2187;-47
2021/07/25 02:19:47;;;;;;;;;;;20.90;66.30;;;;;;485166;245;1221;-47
2021/07/25 02:21:48;;;;;;;;;;;20.80;66.30;;;;;;484831;245;1306;-47
2021/07/25 02:23:49;;;;;;;;;;;20.90;66.50;;;;;;484596;245;1235;-46
2021/07/25 02:25:51;;;;;;;;;;;20.80;66.40;;;;;;484748;245;1158;-46
2021/07/25 02:27:52;;;;;;;;;;;20.90;66.40;;;;;;484978;245;1289;-47
2021/07/25 02:29:53;;;;;;;;;;;20.80;66.40;;;;;;484709;245;1050;-47
2021/07/25 02:31:55;;;;;;;;;;;20.90;66.40;;;;;;484793;245;1229;-46
2021/07/25 02:33:56;;;;;;;;;;;20.90;66.40;;;;;;485075;245;1186;-46
2021/07/25 02:35:57;;;;;;;;;;;20.80;66.30;;;;;;484731;245;1302;-46
2021/07/25 02:37:59;;;;;;;;;;;20.80;66.40;;;;;;484739;245;2180;-47
2021/07/25 02:40:00;;;;;;;;;;;20.90;66.40;;;;;;484961;245;1151;-47
2021/07/25 02:42:01;;;;;;;;;;;20.80;66.40;;;;;;484601;245;1340;-46
2021/07/25 02:44:02;;;;;;;;;;;20.90;66.40;;;;;;485081;245;992;-46
2021/07/25 02:46:04;;;;;;;;;;;20.90;66.50;;;;;;485109;245;1348;-47
2021/07/25 02:48:05;;;;;;;;;;;20.90;66.40;;;;;;485178;245;1113;-47
2021/07/25 02:50:06;;;;;;;;;;;20.90;66.40;;;;;;484892;245;1096;-47
2021/07/25 02:52:08;;;;;;;;;;;20.90;66.40;;;;;;484563;245;1260;-47
2021/07/25 02:54:09;;;;;;;;;;;20.90;66.40;;;;;;484712;245;1047;-47
2021/07/25 02:56:10;;;;;;;;;;;20.90;66.30;;;;;;484647;245;1203;-47
2021/07/25 02:58:12;;;;;;;;;;;20.90;66.50;;;;;;484728;245;2180;-47
2021/07/25 03:00:13;;;;;;;;;;;20.80;66.50;;;;;;485146;245;1114;-47
2021/07/25 03:02:14;;;;;;;;;;;20.90;66.50;;;;;;484721;245;1334;-46
2021/07/25 03:04:16;;;;;;;;;;;20.80;66.50;;;;;;485195;245;1044;-47
2021/07/25 03:06:17;;;;;;;;;;;20.90;66.50;;;;;;485086;245;1128;-47
2021/07/25 03:08:18;;;;;;;;;;;20.90;66.50;;;;;;485143;245;1090;-47
2021/07/25 03:10:20;;;;;;;;;;;20.90;66.50;;;;;;484909;245;1144;-46
2021/07/25 03:12:21;;;;;;;;;;;20.80;66.50;;;;;;484690;245;1157;-47
2021/07/25 03:14:22;;;;;;;;;;;20.80;66.50;;;;;;484685;245;1098;-46
2021/07/25 03:16:24;;;;;;;;;;;20.80;66.40;;;;;;484883;245;1319;-47
2021/07/25 03:18:25;;;;;;;;;;;20.90;66.40;;;;;;485157;245;2181;-47
2021/07/25 03:20:26;;;;;;;;;;;20.90;66.30;;;;;;484735;245;1371;-47
2021/07/25 03:22:28;;;;;;;;;;;20.90;66.40;;;;;;484848;245;1217;-47
2021/07/25 03:24:29;;;;;;;;;;;20.90;66.40;;;;;;484693;245;1090;-47
2021/07/25 03:26:30;;;;;;;;;;;20.90;66.50;;;;;;484637;245;1180;-47
2021/07/25 03:28:32;;;;;;;;;;;20.90;66.60;;;;;;484861;245;1073;-46
2021/07/25 03:30:33;;;;;;;;;;;20.90;66.60;;;;;;484769;245;1083;-46
2021/07/25 03:32:34;;;;;;;;;;;20.90;66.60;;;;;;484674;245;1167;-47
2021/07/25 03:34:36;;;;;;;;;;;20.80;66.60;;;;;;485095;245;1094;-47
2021/07/25 03:36:37;;;;;;;;;;;20.90;66.60;;;;;;485083;245;1370;-47
2021/07/25 03:38:38;;;;;;;;;;;20.80;66.40;;;;;;485150;245;2125;-46
2021/07/25 03:40:42;;;;;;;;;;;20.90;66.40;;;;;;484959;245;1095;-47
2021/07/25 03:42:42;;;;;;;;;;;20.80;66.40;;;;;;484739;246;2223;-47
2021/07/25 03:44:43;;;;;;;;;;;20.90;66.40;;;;;;485170;245;1057;-46
2021/07/25 03:46:44;;;;;;;;;;;20.90;66.40;;;;;;484901;245;1498;-46
2021/07/25 03:48:46;;;;;;;;;;;20.80;66.40;;;;;;485038;245;1313;-47
2021/07/25 03:50:47;;;;;;;;;;;20.80;66.40;;;;;;485091;245;1165;-47
2021/07/25 03:52:48;;;;;;;;;;;20.90;66.40;;;;;;485063;245;1217;-47
2021/07/25 03:54:50;;;;;;;;;;;20.90;66.40;;;;;;484699;245;1237;-47
2021/07/25 03:56:51;;;;;;;;;;;20.90;66.40;;;;;;484704;245;1203;-47
2021/07/25 03:58:52;;;;;;;;;;;20.90;66.30;;;;;;485194;245;2160;-47
2021/07/25 04:00:54;;;;;;;;;;;20.90;66.30;;;;;;485088;245;1217;-47
2021/07/25 04:02:55;;;;;;;;;;;20.90;66.30;;;;;;485015;245;1326;-47
2021/07/25 04:04:56;;;;;;;;;;;20.90;66.30;;;;;;485183;245;1043;-46
2021/07/25 04:06:57;;;;;;;;;;;20.90;66.40;;;;;;485134;245;1277;-46
2021/07/25 04:08:59;;;;;;;;;;;20.90;66.40;;;;;;484747;245;1114;-47
2021/07/25 04:11:01;;;;;;;;;;;20.90;66.40;;;;;;484987;245;1183;-47
2021/07/25 04:13:01;;;;;;;;;;;20.90;66.40;;;;;;485017;245;2223;-47
2021/07/25 04:15:03;;;;;;;;;;;20.90;66.30;;;;;;484948;245;1168;-47
2021/07/25 04:17:04;;;;;;;;;;;20.80;66.30;;;;;;484785;245;1253;-47
2021/07/25 04:19:06;;;;;;;;;;;20.90;66.40;;;;;;485193;245;2129;-47
2021/07/25 04:21:07;;;;;;;;;;;20.90;66.40;;;;;;484776;245;1181;-47
2021/07/25 04:23:08;;;;;;;;;;;20.90;66.40;;;;;;484726;245;1211;-47
2021/07/25 04:25:10;;;;;;;;;;;20.90;66.50;;;;;;484747;245;1056;-47
2021/07/25 04:27:11;;;;;;;;;;;20.90;66.50;;;;;;484682;245;1319;-47
2021/07/25 04:29:12;;;;;;;;;;;20.90;66.40;;;;;;484929;245;1057;-47
2021/07/25 04:31:14;;;;;;;;;;;20.90;66.40;;;;;;484656;245;1459;-47
2021/07/25 04:33:16;;;;;;;;;;;20.90;66.40;;;;;;484871;245;1203;-46
2021/07/25 04:35:17;;;;;;;;;;;20.90;66.40;;;;;;485148;246;2086;-47
2021/07/25 04:37:23;;;;;;;;;;;20.90;66.40;;;;;;484752;245;1321;-47
2021/07/25 04:39:24;;;;;;;;;;;20.90;66.40;;;;;;484753;246;2357;-47
2021/07/25 04:41:25;;;;;;;;;;;20.90;66.40;;;;;;484666;245;1273;-47
2021/07/25 04:43:26;;;;;;;;;;;20.90;66.40;;;;;;485249;245;1083;-47
2021/07/25 04:45:28;;;;;;;;;;;20.90;66.50;;;;;;484698;245;1380;-46
2021/07/25 04:47:29;;;;;;;;;;;20.90;66.40;;;;;;484847;245;1212;-46
2021/07/25 04:49:30;;;;;;;;;;;20.90;66.40;;;;;;485067;245;1033;-46
2021/07/25 04:51:32;;;;;;;;;;;20.90;66.40;;;;;;484682;245;1142;-47
2021/07/25 04:53:33;;;;;;;;;;;20.90;66.40;;;;;;485137;245;1060;-46
2021/07/25 04:55:34;;;;;;;;;;;20.90;66.40;;;;;;485129;245;1369;-47
2021/07/25 04:57:36;;;;;;;;;;;20.90;66.40;;;;;;484635;245;1153;-46
2021/07/25 04:59:39;;;;;;;;;;;20.90;66.40;;;;;;484700;245;2228;-47
2021/07/25 05:01:38;;;;;;;;;;;20.90;66.40;;;;;;484648;246;2495;-46
2021/07/25 05:03:39;;;;;;;;;;;20.90;66.40;;;;;;485240;245;1042;-47
2021/07/25 05:05:41;;;;;;;;;;;20.90;66.40;;;;;;484752;245;1311;-47
2021/07/25 05:07:42;;;;;;;;;;;20.90;66.40;;;;;;485205;245;1359;-47
2021/07/25 05:09:44;;;;;;;;;;;20.90;66.30;;;;;;484794;245;1017;-47
2021/07/25 05:11:45;;;;;;;;;;;20.90;66.30;;;;;;484949;245;1412;-46
2021/07/25 05:13:46;;;;;;;;;;;20.90;66.40;;;;;;485194;245;1087;-47
2021/07/25 05:15:48;;;;;;;;;;;20.90;66.40;;;;;;485172;245;1262;-46
2021/07/25 05:17:49;;;;;;;;;;;20.90;66.30;;;;;;484877;245;1272;-47
2021/07/25 05:19:51;;;;;;;;;;;20.90;66.40;;;;;;485084;245;2379;-47
2021/07/25 05:21:52;;;;;;;;;;;20.90;66.40;;;;;;484603;246;2203;-47
2021/07/25 05:23:53;;;;;;;;;;;20.90;66.50;;;;;;485198;245;1080;-46
2021/07/25 05:25:54;;;;;;;;;;;20.90;66.40;;;;;;485145;245;1368;-47
2021/07/25 05:27:56;;;;;;;;;;;20.90;66.40;;;;;;484811;245;1305;-47
2021/07/25 05:29:57;;;;;;;;;;;20.80;66.40;;;;;;485014;245;1075;-47
2021/07/25 05:31:58;;;;;;;;;;;20.90;66.40;;;;;;484961;245;1172;-46
2021/07/25 05:33:59;;;;;;;;;;;20.90;66.40;;;;;;485176;245;1130;-47
2021/07/25 05:36:01;;;;;;;;;;;20.90;66.50;;;;;;485100;245;1148;-47
2021/07/25 05:38:02;;;;;;;;;;;20.90;66.40;;;;;;484746;245;1194;-46
2021/07/25 05:40:03;;;;;;;;;;;20.90;66.40;;;;;;485192;245;2235;-46
2021/07/25 05:42:05;;;;;;;;;;;20.90;66.50;;;;;;484922;245;1481;-47
2021/07/25 05:44:06;;;;;;;;;;;20.90;66.50;;;;;;484948;245;1215;-47
2021/07/25 05:46:07;;;;;;;;;;;20.90;66.50;;;;;;484688;245;1145;-47
2021/07/25 05:48:09;;;;;;;;;;;20.80;66.60;;;;;;485172;245;1187;-47
2021/07/25 05:50:10;;;;;;;;;;;20.80;66.50;;;;;;485247;245;1074;-47
2021/07/25 05:52:11;;;;;;;;;;;20.80;66.60;;;;;;484798;245;1443;-47
2021/07/25 05:54:13;;;;;;;;;;;20.80;66.60;;;;;;484740;245;1124;-47
2021/07/25 05:56:14;;;;;;;;;;;20.90;66.60;;;;;;484692;245;1561;-47
2021/07/25 05:58:15;;;;;;;;;;;20.80;66.50;;;;;;484754;245;2156;-46
2021/07/25 06:00:16;;;;;;;;;;;20.90;66.60;;;;;;485094;245;1029;-46
2021/07/25 06:02:18;;;;;;;;;;;20.90;66.60;;;;;;484913;245;1530;-46
2021/07/25 06:04:19;;;;;;;;;;;20.80;66.60;;;;;;484789;245;1049;-47
2021/07/25 06:06:21;;;;;;;;;;;20.80;66.70;;;;;;484716;245;1149;-47
2021/07/25 06:08:22;;;;;;;;;;;20.80;66.70;;;;;;484916;245;1166;-47
2021/07/25 06:10:23;;;;;;;;;;;20.90;66.70;;;;;;485182;245;1071;-46
2021/07/25 06:12:25;;;;;;;;;;;20.80;66.60;;;;;;484931;245;1285;-46
2021/07/25 06:14:26;;;;;;;;;;;20.90;66.60;;;;;;484916;245;1209;-47
2021/07/25 06:16:27;;;;;;;;;;;20.80;66.50;;;;;;484665;245;1514;-46
2021/07/25 06:18:29;;;;;;;;;;;20.90;66.50;;;;;;484834;245;2145;-46
2021/07/25 06:20:30;;;;;;;;;;;20.90;66.60;;;;;;484770;245;1077;-46
2021/07/25 06:22:31;;;;;;;;;;;20.90;66.60;;;;;;485129;245;1316;-46
2021/07/25 06:24:33;;;;;;;;;;;20.90;66.70;;;;;;484739;245;1117;-47
2021/07/25 06:26:34;;;;;;;;;;;20.80;66.60;;;;;;485012;245;1336;-47
2021/07/25 06:28:35;;;;;;;;;;;20.90;66.60;;;;;;484826;245;1193;-47
2021/07/25 06:30:36;;;;;;;;;;;20.80;66.70;;;;;;485147;245;1454;-46
2021/07/25 06:32:38;;;;;;;;;;;20.80;66.70;;;;;;484650;245;1255;-47
2021/07/25 06:34:39;;;;;;;;;;;20.80;66.60;;;;;;484806;245;1054;-46
2021/07/25 06:36:41;;;;;;;;;;;20.80;66.60;;;;;;484773;245;1230;-46
2021/07/25 06:38:42;;;;;;;;;;;20.80;66.70;;;;;;485165;245;2145;-47
2021/07/25 06:40:43;;;;;;;;;;;20.90;66.70;;;;;;485100;245;1403;-47
2021/07/25 06:42:44;;;;;;;;;;;20.80;66.70;;;;;;484884;245;1175;-47
2021/07/25 06:44:46;;;;;;;;;;;20.80;66.70;;;;;;484782;245;1111;-47
2021/07/25 06:46:47;;;;;;;;;;;20.80;66.70;;;;;;484685;245;1353;-46
2021/07/25 06:48:48;;;;;;;;;;;20.80;66.70;;;;;;485141;245;1109;-47
2021/07/25 06:50:50;;;;;;;;;;;20.80;66.70;;;;;;484773;245;1355;-47
2021/07/25 06:52:51;;;;;;;;;;;20.80;66.80;;;;;;484675;245;1076;-46
2021/07/25 06:54:52;;;;;;;;;;;20.80;66.70;;;;;;484910;245;1105;-46
2021/07/25 06:56:54;;;;;;;;;;;20.80;66.70;;;;;;485000;245;1337;-46
2021/07/25 06:58:55;;;;;;;;;;;20.80;66.60;;;;;;484824;245;2178;-46
2021/07/25 07:00:56;;;;;;;;;;;20.90;66.70;;;;;;485114;245;1209;-46
2021/07/25 07:02:58;;;;;;;;;;;20.90;66.70;;;;;;485113;245;1075;-47
2021/07/25 07:04:59;;;;;;;;;;;20.80;66.60;;;;;;484687;245;1184;-46
2021/07/25 07:07:00;;;;;;;;;;;20.80;66.70;;;;;;484901;245;1232;-47
2021/07/25 07:09:02;;;;;;;;;;;20.80;66.70;;;;;;484716;245;1233;-47
2021/07/25 07:11:03;;;;;;;;;;;20.80;66.70;;;;;;484679;245;1155;-47
2021/07/25 07:13:06;;;;;;;;;;;20.80;66.80;;;;;;484714;245;1286;-47
2021/07/25 07:15:06;;;;;;;;;;;20.80;66.80;;;;;;485056;246;2250;-47
2021/07/25 07:17:07;;;;;;;;;;;20.80;66.70;;;;;;484762;245;1333;-47
2021/07/25 07:19:08;;;;;;;;;;;20.80;66.70;;;;;;484902;245;2140;-46
2021/07/25 07:21:10;;;;;;;;;;;20.80;66.70;;;;;;485020;245;1302;-47
2021/07/25 07:23:11;;;;;;;;;;;20.80;66.70;;;;;;484736;245;1051;-47
2021/07/25 07:25:12;;;;;;;;;;;20.80;66.70;;;;;;484730;245;1130;-47
2021/07/25 07:27:14;;;;;;;;;;;20.80;66.60;;;;;;484677;245;1626;-46
2021/07/25 07:29:15;;;;;;;;;;;20.80;66.70;;;;;;484891;245;1176;-46
2021/07/25 07:31:16;;;;;;;;;;;20.80;66.60;;;;;;485071;245;1506;-47
2021/07/25 07:33:18;;;;;;;;;;;20.80;66.60;;;;;;485083;245;1084;-47
2021/07/25 07:35:19;;;;;;;;;;;20.80;66.60;;;;;;484678;245;1194;-47
2021/07/25 07:37:20;;;;;;;;;;;20.80;66.60;;;;;;484702;245;1633;-47
2021/07/25 07:39:23;;;;;;;;;;;20.80;66.60;;;;;;485194;245;2207;-46
2021/07/25 07:41:24;;;;;;;;;;;20.80;66.70;;;;;;484886;245;1630;-46
2021/07/25 07:43:25;;;;;;;;;;;20.90;66.70;;;;;;485034;245;1482;-47
2021/07/25 07:45:27;;;;;;;;;;;20.90;66.70;;;;;;485142;245;1069;-47
2021/07/25 07:47:28;;;;;;;;;;;20.90;66.70;;;;;;485130;245;1271;-47
2021/07/25 07:49:29;;;;;;;;;;;20.90;66.70;;;;;;484922;245;987;-47
2021/07/25 07:51:31;;;;;;;;;;;20.90;66.70;;;;;;484908;245;1182;-46
2021/07/25 07:53:32;;;;;;;;;;;20.90;66.70;;;;;;484665;245;1058;-47
2021/07/25 07:55:33;;;;;;;;;;;20.80;66.70;;;;;;485132;245;1139;-46
2021/07/25 07:57:35;;;;;;;;;;;20.80;66.70;;;;;;484665;245;1220;-47
2021/07/25 07:59:36;;;;;;;;;;;20.80;66.60;;;;;;484739;245;2207;-46
2021/07/25 08:01:37;;;;;;;;;;;20.80;66.60;;;;;;485168;245;1373;-46
2021/07/25 08:03:39;;;;;;;;;;;20.90;66.70;;;;;;484905;245;1040;-46
2021/07/25 08:05:40;;;;;;;;;;;20.80;66.70;;;;;;485191;245;1107;-46
2021/07/25 08:07:42;;;;;;;;;;;20.80;66.70;;;;;;484965;245;1216;-47
2021/07/25 08:09:43;;;;;;;;;;;20.80;66.70;;;;;;485208;245;1031;-47
2021/07/25 08:11:45;;;;;;;;;;;20.80;66.70;;;;;;485171;245;1167;-46
2021/07/25 08:13:46;;;;;;;;;;;20.80;66.60;;;;;;484671;245;2393;-46
2021/07/25 08:15:47;;;;;;;;;;;20.90;66.60;;;;;;485121;245;1154;-46
2021/07/25 08:17:48;;;;;;;;;;;20.90;66.60;;;;;;485116;245;1262;-46
2021/07/25 08:19:50;;;;;;;;;;;20.90;66.50;;;;;;484713;245;2180;-46
2021/07/25 08:21:51;;;;;;;;;;;20.90;66.60;;;;;;485103;245;1349;-47
2021/07/25 08:23:52;;;;;;;;;;;20.90;66.60;;;;;;485133;245;1791;-46
2021/07/25 08:25:54;;;;;;;;;;;20.90;66.60;;;;;;484972;245;1257;-46
2021/07/25 08:27:55;;;;;;;;;;;20.80;66.60;;;;;;485141;245;1244;-47
2021/07/25 08:29:56;;;;;;;;;;;20.90;66.60;;;;;;484859;245;1262;-47
2021/07/25 08:31:59;;;;;;;;;;;20.90;66.70;;;;;;484921;245;1274;-47
2021/07/25 08:33:59;;;;;;;;;;;20.80;66.60;;;;;;485161;245;2288;-46
2021/07/25 08:36:02;;;;;;;;;;;20.90;66.70;;;;;;485096;245;1178;-47
2021/07/25 08:38:02;;;;;;;;;;;20.90;66.70;;;;;;484550;245;1808;-46
2021/07/25 08:40:03;;;;;;;;;;;20.90;66.60;;;;;;484884;245;2195;-46
2021/07/25 08:42:05;;;;;;;;;;;20.90;66.70;;;;;;484578;245;1502;-47
2021/07/25 08:44:06;;;;;;;;;;;20.80;66.60;;;;;;484647;245;1163;-46
2021/07/25 08:46:07;;;;;;;;;;;20.80;66.60;;;;;;484656;245;1231;-47
2021/07/25 08:48:09;;;;;;;;;;;20.90;66.60;;;;;;485003;245;1116;-46
2021/07/25 08:50:10;;;;;;;;;;;20.90;66.70;;;;;;485103;245;1055;-46
2021/07/25 08:52:11;;;;;;;;;;;20.80;66.70;;;;;;484861;245;1236;-46
2021/07/25 08:54:13;;;;;;;;;;;20.90;66.70;;;;;;484678;245;1066;-46
2021/07/25 08:56:14;;;;;;;;;;;20.90;66.60;;;;;;484947;245;1147;-46
2021/07/25 08:58:15;;;;;;;;;;;20.80;66.70;;;;;;485144;245;1239;-47
2021/07/25 09:00:17;;;;;;;;;;;20.80;66.70;;;;;;484872;245;2200;-47
2021/07/25 09:02:18;;;;;;;;;;;20.80;66.70;;;;;;485067;245;1205;-47
2021/07/25 09:04:19;;;;;;;;;;;20.80;66.80;;;;;;484906;245;1095;-47
2021/07/25 09:06:21;;;;;;;;;;;20.80;66.70;;;;;;484631;245;1161;-46
2021/07/25 09:08:22;;;;;;;;;;;20.80;66.70;;;;;;484694;245;1201;-47
2021/07/25 09:10:23;;;;;;;;;;;20.90;66.60;;;;;;485083;245;1317;-47
2021/07/25 09:12:26;;;;;;;;;;;20.80;66.70;;;;;;484618;245;1215;-47
2021/07/25 09:14:27;;;;;;;;;;;20.80;66.70;;;;;;484826;245;1195;-47
2021/07/25 09:16:28;;;;;;;;;;;20.80;66.70;;;;;;484947;245;1511;-47
2021/07/25 09:18:31;;;;;;;;;;;20.90;66.60;;;;;;485083;245;1205;-47
2021/07/25 09:20:32;;;;;;;;;;;20.90;66.70;;;;;;485031;245;2195;-47
2021/07/25 09:22:33;;;;;;;;;;;20.80;66.70;;;;;;485110;245;1196;-47
2021/07/25 09:24:35;;;;;;;;;;;20.80;66.70;;;;;;484920;245;1325;-47
2021/07/25 09:26:36;;;;;;;;;;;20.80;66.70;;;;;;485056;245;1144;-47
2021/07/25 09:28:37;;;;;;;;;;;20.80;66.70;;;;;;485205;245;1019;-47
2021/07/25 09:30:39;;;;;;;;;;;20.80;66.70;;;;;;484713;245;1278;-46
2021/07/25 09:32:40;;;;;;;;;;;20.80;66.60;;;;;;484926;245;1354;-47
2021/07/25 09:34:41;;;;;;;;;;;20.80;66.60;;;;;;485063;245;1061;-47
2021/07/25 09:36:43;;;;;;;;;;;20.90;66.70;;;;;;484817;245;1344;-47
2021/07/25 09:38:44;;;;;;;;;;;20.90;66.70;;;;;;484895;245;1064;-47
2021/07/25 09:40:45;;;;;;;;;;;20.80;66.60;;;;;;484735;245;2199;-46
2021/07/25 09:42:47;;;;;;;;;;;20.80;66.70;;;;;;484681;245;1209;-46
2021/07/25 09:44:48;;;;;;;;;;;20.80;66.70;;;;;;485064;245;1149;-46
2021/07/25 09:46:50;;;;;;;;;;;20.80;66.70;;;;;;484681;245;1334;-47
2021/07/25 09:48:51;;;;;;;;;;;20.80;66.60;;;;;;484863;245;2285;-47
2021/07/25 09:50:52;;;;;;;;;;;20.90;66.60;;;;;;485054;245;1146;-47
2021/07/25 09:52:54;;;;;;;;;;;20.80;66.60;;;;;;485122;245;1056;-47
2021/07/25 09:54:56;;;;;;;;;;;20.90;66.70;;;;;;485090;245;1043;-46
2021/07/25 09:56:57;;;;;;;;;;;20.90;66.70;;;;;;484588;245;2281;-47
2021/07/25 09:58:59;;;;;;;;;;;20.90;66.60;;;;;;484662;245;1369;-47
2021/07/25 10:00:59;;;;;;;;;;;20.90;66.60;;;;;;484535;246;2153;-44
2021/07/25 10:03:01;;;;;;;;;;;20.80;66.60;;;;;;484879;245;1248;-47
2021/07/25 10:05:02;;;;;;;;;;;20.80;66.60;;;;;;484711;245;1061;-47
2021/07/25 10:07:03;;;;;;;;;;;20.90;66.70;;;;;;484626;245;1113;-47
2021/07/25 10:09:04;;;;;;;;;;;20.80;66.70;;;;;;485089;245;1180;-46
2021/07/25 10:11:06;;;;;;;;;;;20.90;66.70;;;;;;485063;245;1053;-46
2021/07/25 10:13:07;;;;;;;;;;;20.80;66.70;;;;;;485068;245;1222;-47
2021/07/25 10:15:08;;;;;;;;;;;20.80;66.80;;;;;;484665;245;1214;-47
2021/07/25 10:17:10;;;;;;;;;;;20.80;66.70;;;;;;484645;245;1477;-47
2021/07/25 10:19:11;;;;;;;;;;;20.80;66.70;;;;;;484702;245;1259;-47
2021/07/25 10:21:12;;;;;;;;;;;20.80;66.70;;;;;;484613;245;2207;-47
2021/07/25 10:23:14;;;;;;;;;;;20.80;66.60;;;;;;485136;245;1229;-47
2021/07/25 10:25:15;;;;;;;;;;;20.80;66.70;;;;;;484697;245;1062;-47
2021/07/25 10:27:16;;;;;;;;;;;20.80;66.70;;;;;;484804;245;1404;-46
2021/07/25 10:29:18;;;;;;;;;;;20.80;66.70;;;;;;484870;245;1017;-47
2021/07/25 10:31:19;;;;;;;;;;;20.90;66.70;;;;;;484687;245;1312;-47
2021/07/25 10:33:20;;;;;;;;;;;20.90;66.70;;;;;;485186;245;1071;-47
2021/07/25 10:35:22;;;;;;;;;;;20.80;66.70;;;;;;485187;245;1055;-47
2021/07/25 10:37:23;;;;;;;;;;;20.80;66.70;;;;;;484605;245;1419;-46
2021/07/25 10:39:25;;;;;;;;;;;20.80;66.70;;;;;;484716;245;1095;-46
2021/07/25 10:41:26;;;;;;;;;;;20.80;66.70;;;;;;484971;245;2133;-47
2021/07/25 10:43:27;;;;;;;;;;;20.80;66.70;;;;;;485168;245;1049;-46
2021/07/25 10:45:28;;;;;;;;;;;20.80;66.70;;;;;;485052;245;1174;-46
2021/07/25 10:47:30;;;;;;;;;;;20.80;66.70;;;;;;484669;245;1316;-46
2021/07/25 10:49:31;;;;;;;;;;;20.80;66.70;;;;;;484992;246;2296;-47
2021/07/25 10:51:32;;;;;;;;;;;20.80;66.70;;;;;;485104;245;1143;-46
2021/07/25 10:53:34;;;;;;;;;;;20.80;66.70;;;;;;484658;245;1103;-47
2021/07/25 10:55:35;;;;;;;;;;;20.80;66.70;;;;;;485070;245;1112;-47
2021/07/25 10:57:36;;;;;;;;;;;20.80;66.70;;;;;;484722;245;1352;-47
2021/07/25 10:59:38;;;;;;;;;;;20.80;66.70;;;;;;485142;245;1313;-46
2021/07/25 11:01:39;;;;;;;;;;;20.80;66.70;;;;;;484786;245;2120;-46
2021/07/25 11:03:41;;;;;;;;;;;20.80;66.80;;;;;;484993;245;1049;-46
2021/07/25 11:05:42;;;;;;;;;;;20.80;66.70;;;;;;484871;245;1042;-47
2021/07/25 11:07:43;;;;;;;;;;;20.90;66.80;;;;;;485140;245;1211;-47
2021/07/25 11:09:45;;;;;;;;;;;20.80;66.70;;;;;;485173;245;1048;-47
2021/07/25 11:11:46;;;;;;;;;;;20.80;66.70;;;;;;484867;245;1799;-47
2021/07/25 11:13:47;;;;;;;;;;;20.80;66.70;;;;;;484693;245;1075;-47
2021/07/25 11:15:49;;;;;;;;;;;20.80;66.70;;;;;;484929;245;1295;-47
2021/07/25 11:17:51;;;;;;;;;;;20.80;66.70;;;;;;485082;245;1236;-47
2021/07/25 11:19:52;;;;;;;;;;;20.80;66.70;;;;;;485167;245;1069;-47
2021/07/25 11:21:53;;;;;;;;;;;20.90;66.70;;;;;;485024;245;2183;-47
2021/07/25 11:23:55;;;;;;;;;;;20.80;66.70;;;;;;485075;245;1060;-47
2021/07/25 11:25:56;;;;;;;;;;;20.80;66.60;;;;;;484728;245;1224;-47
2021/07/25 11:27:57;;;;;;;;;;;20.80;66.60;;;;;;485101;245;1153;-47
2021/07/25 11:29:59;;;;;;;;;;;20.90;66.60;;;;;;485146;245;1057;-47
2021/07/25 11:32:00;;;;;;;;;;;20.90;66.60;;;;;;484691;245;1856;-46
2021/07/25 11:34:01;;;;;;;;;;;20.90;66.60;;;;;;484711;245;1090;-47
2021/07/25 11:36:02;;;;;;;;;;;20.80;66.60;;;;;;484585;245;1203;-46
2021/07/25 11:38:04;;;;;;;;;;;20.80;66.60;;;;;;484680;245;1171;-47
2021/07/25 11:40:05;;;;;;;;;;;20.80;66.60;;;;;;485080;245;1031;-47
2021/07/25 11:42:06;;;;;;;;;;;20.90;66.70;;;;;;484707;245;2191;-46
2021/07/25 11:44:08;;;;;;;;;;;20.80;66.50;;;;;;484649;245;1164;-46
2021/07/25 11:46:09;;;;;;;;;;;20.90;66.60;;;;;;485027;245;1271;-47
2021/07/25 11:48:11;;;;;;;;;;;20.80;66.50;;;;;;485076;245;1294;-47
2021/07/25 11:50:12;;;;;;;;;;;20.90;66.60;;;;;;484940;245;1065;-47
2021/07/25 11:52:13;;;;;;;;;;;20.90;66.60;;;;;;484591;245;1196;-47
2021/07/25 11:54:15;;;;;;;;;;;20.90;66.70;;;;;;484662;245;1099;-46
2021/07/25 11:56:16;;;;;;;;;;;20.90;66.70;;;;;;484660;245;1177;-46